Mission Valley, Texas
Current Conditions -  °F | °C
As of 11:51 AM on Saturday 25 Oct 2014 (Local Time) from KVCT Reporting Station
Clear Clear  
Wind Chill: 82°   Ceiling: Unl
Heat Index: 82°   Visibility: 10mi
Dew Point: 59°   Wind: 3mph
Humidity: 45%   Direction: NA
Pressure: 30.18"   Gusts: NA
Location:  28.7094°N, 97.0351°W
Report Text: KVCT 251651Z VRB03KT 10SM CLR 28/15 A3018 RMK AO2 SLP218 T02780150
Loading
Personal Weather Stations






























Interactive Weather Map
Tropical Storm Tracking
New forecast layout! Learn more

10-Day Weather Forecast

Advertisements
Track Severe Weather on mobile